Terminal Aerodrome Forecast
Issued by NWS

Home | Current Version | Previous Version | Text Only | Print | Product List | Glossary On
Versions: 1 2 3 4 5 6 7 8 9 10 11 12 13 14
216
FTUS44 KMAF 292330
TAFPEQ
TAF
KPEQ 292330Z 3000/3024 06012KT P6SM SCT050 BKN250
     FM300200 12010KT P6SM SCT060 SCT250
     FM301800 24010KT P6SM SCT060 SCT250=

USA.gov is the U.S. government's official web portal to all federal, state and local government web resources and services.